Time;durP1;ratioP1;P1;durP2;ratioP2;P2;SDS_P1;SDS_P2;PMS_P1;PMS_P2;Temp;Humidity;BMP_temperature;BMP_pressure;BME280_temperature;BME280_humidity;BME280_pressure;Samples;Min_cycle;Max_cycle;Signal;HPM_P1;HPM_P2
2021/05/09 00:00:55;;;;;;;;;;;;;;;;;;5035041;28;19916;-84
2021/05/09 00:03:21;;;;;;;;;;;;;;;;;;5054321;28;19916;-83
2021/05/09 00:05:47;;;;;;;;;;;;;;;;;;5053367;28;19912;-83
2021/05/09 00:08:13;;;;;;;;;;;;;;;;;;5053957;28;19909;-84
2021/05/09 00:10:38;;;;;;;;;;;;;;;;;;5053258;28;20286;-84
2021/05/09 00:13:04;;;;;;;;;;;;;;;;;;5054740;28;19991;-84
2021/05/09 00:15:30;;;;;;;;;;;;;;;;;;5052690;28;19995;-84
2021/05/09 00:17:56;;;;;;;;;;;;;;;;;;5051089;28;19936;-83
2021/05/09 00:20:22;;;;;;;;;;;;;;;;;;5044704;28;20379;-84
2021/05/09 00:22:48;;;;;;;;;;;;;;;;;;5052944;28;19960;-84
2021/05/09 00:25:14;;;;;;;;;;;;;;;;;;5044123;28;19935;-83
2021/05/09 00:27:40;;;;;;;;;;;;;;;;;;5041316;28;19909;-83
2021/05/09 00:30:06;;;;;;;;;;;;;;;;;;5053859;28;19912;-83
2021/05/09 00:32:32;;;;;;;;;;;;;;;;;;5053953;28;20271;-83
2021/05/09 00:34:58;;;;;;;;;;;;;;;;;;5054653;28;19916;-83
2021/05/09 00:37:24;;;;;;;;;;;;;;;;;;5054189;28;19931;-83
2021/05/09 00:39:50;;;;;;;;;;;;;;;;;;5052495;28;19924;-83
2021/05/09 00:42:15;;;;;;;;;;;;;;;;;;5052300;28;19909;-83
2021/05/09 00:44:41;;;;;;;;;;;;;;;;;;5054495;28;19916;-83
2021/05/09 00:47:07;;;;;;;;;;;;;;;;;;5043551;28;19940;-83
2021/05/09 00:49:33;;;;;;;;;;;;;;;;;;5043894;28;19913;-83
2021/05/09 00:51:59;;;;;;;;;;;;;;;;;;5053528;28;19912;-83
2021/05/09 00:54:25;;;;;;;;;;;;;;;;;;5053503;28;19908;-83
2021/05/09 00:56:51;;;;;;;;;;;;;;;;;;5052303;28;19916;-83
2021/05/09 00:59:18;;;;;;;;;;;;;;;;;;5053519;28;20414;-82
2021/05/09 01:01:44;;;;;;;;;;;;;;;;;;5051767;28;19909;-83
2021/05/09 01:04:09;;;;;;;;;;;;;;;;;;5053747;28;20435;-83
2021/05/09 01:06:35;;;;;;;;;;;;;;;;;;5035197;28;19952;-83
2021/05/09 01:09:01;;;;;;;;;;;;;;;;;;5033637;28;19949;-83
2021/05/09 01:11:27;;;;;;;;;;;;;;;;;;5031866;28;20022;-82
2021/05/09 01:13:53;;;;;;;;;;;;;;;;;;5033413;28;20008;-82
2021/05/09 01:16:19;;;;;;;;;;;;;;;;;;5043029;28;20398;-83
2021/05/09 01:18:45;;;;;;;;;;;;;;;;;;5033293;28;20357;-83
2021/05/09 01:21:11;;;;;;;;;;;;;;;;;;5032031;28;19909;-83
2021/05/09 01:23:37;;;;;;;;;;;;;;;;;;5032275;28;20008;-82
2021/05/09 01:26:03;;;;;;;;;;;;;;;;;;5048677;28;20364;-83
2021/05/09 01:28:29;;;;;;;;;;;;;;;;;;5053149;28;19909;-83
2021/05/09 01:30:55;;;;;;;;;;;;;;;;;;5044821;28;19917;-82
2021/05/09 01:33:21;;;;;;;;;;;;;;;;;;5041538;28;20063;-82
2021/05/09 01:35:47;;;;;;;;;;;;;;;;;;5048003;28;19963;-83
2021/05/09 01:38:13;;;;;;;;;;;;;;;;;;5031990;28;20254;-83
2021/05/09 01:40:39;;;;;;;;;;;;;;;;;;5052744;28;19920;-83
2021/05/09 01:43:04;;;;;;;;;;;;;;;;;;5052836;28;19912;-82
2021/05/09 01:45:30;;;;;;;;;;;;;;;;;;5052217;28;19909;-82
2021/05/09 01:47:56;;;;;;;;;;;;;;;;;;5052358;28;20510;-83
2021/05/09 01:50:22;;;;;;;;;;;;;;;;;;5040650;28;19920;-83
2021/05/09 01:52:48;;;;;;;;;;;;;;;;;;5037858;28;19909;-82
2021/05/09 01:55:14;;;;;;;;;;;;;;;;;;5043804;28;19913;-82
2021/05/09 01:57:40;;;;;;;;;;;;;;;;;;5056545;28;19909;-82
2021/05/09 02:00:06;;;;;;;;;;;;;;;;;;5055307;28;20252;-82
2021/05/09 02:02:32;;;;;;;;;;;;;;;;;;5052077;28;19913;-83
2021/05/09 02:04:58;;;;;;;;;;;;;;;;;;5061493;28;20498;-83
2021/05/09 02:07:24;;;;;;;;;;;;;;;;;;5047142;28;20012;-83
2021/05/09 02:09:49;;;;;;;;;;;;;;;;;;5051571;28;20003;-83
2021/05/09 02:12:15;;;;;;;;;;;;;;;;;;5056070;28;19931;-82
2021/05/09 02:14:41;;;;;;;;;;;;;;;;;;5054427;28;19917;-83
2021/05/09 02:17:07;;;;;;;;;;;;;;;;;;5038134;28;20407;-83
2021/05/09 02:19:33;;;;;;;;;;;;;;;;;;5040419;28;20547;-83
2021/05/09 02:21:59;;;;;;;;;;;;;;;;;;5043487;28;20267;-83
2021/05/09 02:24:25;;;;;;;;;;;;;;;;;;5034772;28;19909;-83
2021/05/09 02:26:51;;;;;;;;;;;;;;;;;;5035775;28;20360;-83
2021/05/09 02:29:17;;;;;;;;;;;;;;;;;;5036377;28;19913;-83
2021/05/09 02:31:43;;;;;;;;;;;;;;;;;;5039778;28;19917;-83
2021/05/09 02:34:09;;;;;;;;;;;;;;;;;;5044294;28;19913;-83
2021/05/09 02:36:35;;;;;;;;;;;;;;;;;;5035241;28;20360;-84
2021/05/09 02:39:00;;;;;;;;;;;;;;;;;;5034954;28;19941;-83
2021/05/09 02:41:26;;;;;;;;;;;;;;;;;;5048285;28;20279;-83
2021/05/09 02:43:52;;;;;;;;;;;;;;;;;;5055469;28;19909;-82
2021/05/09 02:46:18;;;;;;;;;;;;;;;;;;5055564;28;19915;-83
2021/05/09 02:48:44;;;;;;;;;;;;;;;;;;5054092;28;19908;-83
2021/05/09 02:51:10;;;;;;;;;;;;;;;;;;5054315;28;19913;-83
2021/05/09 02:53:36;;;;;;;;;;;;;;;;;;5054907;28;19908;-83
2021/05/09 02:56:02;;;;;;;;;;;;;;;;;;5054386;28;19909;-84
2021/05/09 02:58:28;;;;;;;;;;;;;;;;;;5042415;28;19914;-83
2021/05/09 03:00:54;;;;;;;;;;;;;;;;;;5034562;28;19916;-83
2021/05/09 03:03:20;;;;;;;;;;;;;;;;;;5035853;28;19909;-83
2021/05/09 03:05:46;;;;;;;;;;;;;;;;;;5042333;28;20333;-84
2021/05/09 03:08:12;;;;;;;;;;;;;;;;;;5051988;28;19908;-83
2021/05/09 03:10:37;;;;;;;;;;;;;;;;;;5054557;28;19959;-83
2021/05/09 03:13:03;;;;;;;;;;;;;;;;;;5054929;28;19909;-83
2021/05/09 03:15:29;;;;;;;;;;;;;;;;;;5055459;28;20296;-83
2021/05/09 03:17:55;;;;;;;;;;;;;;;;;;5055941;28;19909;-84
2021/05/09 03:20:21;;;;;;;;;;;;;;;;;;5053085;28;19909;-83
2021/05/09 03:22:47;;;;;;;;;;;;;;;;;;5045141;28;19923;-83
2021/05/09 03:25:13;;;;;;;;;;;;;;;;;;5054283;28;20383;-83
2021/05/09 03:27:39;;;;;;;;;;;;;;;;;;5054188;28;19913;-83
2021/05/09 03:30:05;;;;;;;;;;;;;;;;;;5051480;28;19912;-83
2021/05/09 03:32:31;;;;;;;;;;;;;;;;;;5043268;28;19913;-83
2021/05/09 03:34:57;;;;;;;;;;;;;;;;;;5050308;28;19963;-84
2021/05/09 03:37:23;;;;;;;;;;;;;;;;;;5041823;28;19944;-83
2021/05/09 03:39:49;;;;;;;;;;;;;;;;;;5048596;28;20007;-83
2021/05/09 03:42:15;;;;;;;;;;;;;;;;;;5054148;28;20343;-83
2021/05/09 03:44:40;;;;;;;;;;;;;;;;;;5053657;28;19952;-83
2021/05/09 03:47:06;;;;;;;;;;;;;;;;;;5042619;28;20007;-83
2021/05/09 03:49:32;;;;;;;;;;;;;;;;;;5040198;28;20027;-84
2021/05/09 03:51:58;;;;;;;;;;;;;;;;;;5053002;28;20003;-83
2021/05/09 03:54:24;;;;;;;;;;;;;;;;;;5053556;28;20071;-83
2021/05/09 03:56:50;;;;;;;;;;;;;;;;;;5053175;28;19909;-83
2021/05/09 03:59:16;;;;;;;;;;;;;;;;;;5051507;28;20375;-83
2021/05/09 04:01:42;;;;;;;;;;;;;;;;;;5039838;28;19917;-83
2021/05/09 04:04:08;;;;;;;;;;;;;;;;;;5033011;28;19913;-83
2021/05/09 04:06:34;;;;;;;;;;;;;;;;;;5049945;28;19913;-83
2021/05/09 04:09:00;;;;;;;;;;;;;;;;;;5052328;28;19958;-83
2021/05/09 04:11:26;;;;;;;;;;;;;;;;;;5034128;28;19917;-83
2021/05/09 04:13:52;;;;;;;;;;;;;;;;;;5039861;28;19916;-83
2021/05/09 04:16:17;;;;;;;;;;;;;;;;;;5050160;28;19909;-83
2021/05/09 04:18:43;;;;;;;;;;;;;;;;;;5039164;28;20372;-83
2021/05/09 04:21:09;;;;;;;;;;;;;;;;;;5036498;28;19960;-83
2021/05/09 04:23:35;;;;;;;;;;;;;;;;;;5039696;28;19944;-83
2021/05/09 04:26:01;;;;;;;;;;;;;;;;;;5039742;28;19917;-83
2021/05/09 04:28:27;;;;;;;;;;;;;;;;;;5038399;28;20163;-82
2021/05/09 04:30:53;;;;;;;;;;;;;;;;;;5033361;28;19921;-84
2021/05/09 04:33:19;;;;;;;;;;;;;;;;;;5037495;28;19920;-82
2021/05/09 04:35:45;;;;;;;;;;;;;;;;;;5032190;28;19913;-85
2021/05/09 04:38:11;;;;;;;;;;;;;;;;;;5034353;28;19913;-83
2021/05/09 04:40:37;;;;;;;;;;;;;;;;;;5035933;28;19982;-83
2021/05/09 04:43:03;;;;;;;;;;;;;;;;;;5039269;28;19913;-84
2021/05/09 04:45:29;;;;;;;;;;;;;;;;;;5034185;28;19919;-84
2021/05/09 04:47:54;;;;;;;;;;;;;;;;;;5033942;28;19991;-83
2021/05/09 04:50:20;;;;;;;;;;;;;;;;;;5036300;28;20631;-83
2021/05/09 04:52:46;;;;;;;;;;;;;;;;;;5042255;28;20006;-83
2021/05/09 04:55:12;;;;;;;;;;;;;;;;;;5034474;28;20052;-83
2021/05/09 04:57:38;;;;;;;;;;;;;;;;;;5039233;28;19919;-84
2021/05/09 05:00:04;;;;;;;;;;;;;;;;;;5032950;28;19909;-83
2021/05/09 05:02:30;;;;;;;;;;;;;;;;;;5038120;28;19924;-84
2021/05/09 05:04:56;;;;;;;;;;;;;;;;;;5035072;28;20000;-84
2021/05/09 05:07:22;;;;;;;;;;;;;;;;;;5042646;28;19968;-83
2021/05/09 05:09:48;;;;;;;;;;;;;;;;;;5037992;28;19917;-83
2021/05/09 05:12:14;;;;;;;;;;;;;;;;;;5035665;28;19971;-83
2021/05/09 05:14:40;;;;;;;;;;;;;;;;;;5041766;28;19917;-84
2021/05/09 05:17:06;;;;;;;;;;;;;;;;;;5041474;28;19920;-83
2021/05/09 05:19:32;;;;;;;;;;;;;;;;;;5039257;28;19919;-84
2021/05/09 05:21:58;;;;;;;;;;;;;;;;;;5041223;28;19916;-84
2021/05/09 05:24:24;;;;;;;;;;;;;;;;;;5040270;28;19967;-84
2021/05/09 05:26:50;;;;;;;;;;;;;;;;;;5045176;28;19913;-83
2021/05/09 05:29:16;;;;;;;;;;;;;;;;;;5038212;28;20364;-83
2021/05/09 05:31:44;;;;;;;;;;;;;;;;;;5046812;28;19916;-84
2021/05/09 05:34:10;;;;;;;;;;;;;;;;;;5042250;28;19913;-84
2021/05/09 05:36:36;;;;;;;;;;;;;;;;;;5038437;28;20077;-83
2021/05/09 05:39:02;;;;;;;;;;;;;;;;;;5042919;28;19913;-83
2021/05/09 05:41:28;;;;;;;;;;;;;;;;;;5035673;28;19924;-83
2021/05/09 05:43:54;;;;;;;;;;;;;;;;;;5040571;28;20299;-83
2021/05/09 05:46:20;;;;;;;;;;;;;;;;;;5042324;28;19918;-83
2021/05/09 05:48:46;;;;;;;;;;;;;;;;;;5046789;28;20025;-83
2021/05/09 05:51:12;;;;;;;;;;;;;;;;;;5044429;28;20088;-83
2021/05/09 05:53:38;;;;;;;;;;;;;;;;;;5042603;28;20960;-83
2021/05/09 05:56:03;;;;;;;;;;;;;;;;;;5034534;28;19923;-83
2021/05/09 05:58:29;;;;;;;;;;;;;;;;;;5042166;28;19913;-84
2021/05/09 06:00:55;;;;;;;;;;;;;;;;;;5038411;28;19913;-83
2021/05/09 06:03:23;;;;;;;;;;;;;;;;;;5039165;28;19913;-83
2021/05/09 06:05:49;;;;;;;;;;;;;;;;;;5039842;28;20387;-84
2021/05/09 06:08:18;;;;;;;;;;;;;;;;;;5043413;28;19925;-83
2021/05/09 06:10:44;;;;;;;;;;;;;;;;;;5035372;28;20410;-83
2021/05/09 06:13:10;;;;;;;;;;;;;;;;;;5042745;28;19913;-83
2021/05/09 06:15:36;;;;;;;;;;;;;;;;;;5038740;28;20009;-83
2021/05/09 06:18:02;;;;;;;;;;;;;;;;;;5045934;28;19913;-83
2021/05/09 06:20:28;;;;;;;;;;;;;;;;;;5039750;28;19943;-83
2021/05/09 06:22:54;;;;;;;;;;;;;;;;;;5037511;28;20337;-84
2021/05/09 06:25:20;;;;;;;;;;;;;;;;;;5042908;28;19920;-84
2021/05/09 06:27:46;;;;;;;;;;;;;;;;;;5045952;28;20268;-84
2021/05/09 06:30:11;;;;;;;;;;;;;;;;;;5046579;28;19971;-83
2021/05/09 06:32:37;;;;;;;;;;;;;;;;;;5035306;28;20205;-84
2021/05/09 06:35:03;;;;;;;;;;;;;;;;;;5041222;28;21825;-84
2021/05/09 06:37:30;;;;;;;;;;;;;;;;;;5050846;28;19913;-84
2021/05/09 06:39:56;;;;;;;;;;;;;;;;;;5038694;28;20008;-84
2021/05/09 06:42:22;;;;;;;;;;;;;;;;;;5041427;28;20362;-84
2021/05/09 06:44:54;;;;;;;;;;;;;;;;;;5040031;28;20349;-85
2021/05/09 06:47:20;;;;;;;;;;;;;;;;;;5044569;28;20398;-83
2021/05/09 06:49:46;;;;;;;;;;;;;;;;;;5043471;28;19913;-85
2021/05/09 06:52:12;;;;;;;;;;;;;;;;;;5037608;28;19917;-85
2021/05/09 06:54:38;;;;;;;;;;;;;;;;;;5045671;28;19945;-84
2021/05/09 06:57:03;;;;;;;;;;;;;;;;;;5049837;28;19917;-84
2021/05/09 06:59:30;;;;;;;;;;;;;;;;;;5042654;28;19913;-86
2021/05/09 07:01:56;;;;;;;;;;;;;;;;;;5038947;28;19917;-85
2021/05/09 07:04:21;;;;;;;;;;;;;;;;;;5042503;28;19948;-85
2021/05/09 07:06:47;;;;;;;;;;;;;;;;;;5046734;28;19920;-84
2021/05/09 07:09:13;;;;;;;;;;;;;;;;;;5048011;28;19916;-84
2021/05/09 07:11:39;;;;;;;;;;;;;;;;;;5049707;28;19924;-85
2021/05/09 07:14:05;;;;;;;;;;;;;;;;;;5052795;28;19959;-84
2021/05/09 07:16:31;;;;;;;;;;;;;;;;;;5047434;28;19916;-84
2021/05/09 07:18:57;;;;;;;;;;;;;;;;;;5040983;28;19913;-85
2021/05/09 07:21:27;;;;;;;;;;;;;;;;;;5045332;28;20851;-84
2021/05/09 07:23:53;;;;;;;;;;;;;;;;;;5043414;28;19917;-84
2021/05/09 07:26:19;;;;;;;;;;;;;;;;;;5046521;28;20012;-84
2021/05/09 07:28:46;;;;;;;;;;;;;;;;;;5043384;28;19983;-85
2021/05/09 07:31:11;;;;;;;;;;;;;;;;;;5042259;28;19921;-84
2021/05/09 07:33:37;;;;;;;;;;;;;;;;;;5048407;28;20375;-85
2021/05/09 07:36:04;;;;;;;;;;;;;;;;;;5004643;28;19932;-84
2021/05/09 07:38:30;;;;;;;;;;;;;;;;;;5041036;28;19917;-84
2021/05/09 07:40:56;;;;;;;;;;;;;;;;;;5041159;28;19927;-85
2021/05/09 07:43:22;;;;;;;;;;;;;;;;;;5042018;28;19913;-84
2021/05/09 07:45:48;;;;;;;;;;;;;;;;;;5036090;28;19917;-84
2021/05/09 07:48:14;;;;;;;;;;;;;;;;;;5043842;28;19917;-85
2021/05/09 07:50:40;;;;;;;;;;;;;;;;;;5036590;28;20011;-85
2021/05/09 07:53:06;;;;;;;;;;;;;;;;;;5006137;28;19964;-84
2021/05/09 07:55:32;;;;;;;;;;;;;;;;;;5045304;28;19913;-83
2021/05/09 07:57:58;;;;;;;;;;;;;;;;;;5036809;28;19940;-84
2021/05/09 08:00:24;;;;;;;;;;;;;;;;;;5044920;28;19931;-86
2021/05/09 08:02:50;;;;;;;;;;;;;;;;;;5038660;28;20011;-84
2021/05/09 08:05:16;;;;;;;;;;;;;;;;;;5041273;28;19920;-85
2021/05/09 08:07:41;;;;;;;;;;;;;;;;;;5045653;28;19936;-86
2021/05/09 08:10:07;;;;;;;;;;;;;;;;;;5042778;28;20363;-85
2021/05/09 08:12:33;;;;;;;;;;;;;;;;;;5045270;28;19923;-84
2021/05/09 08:14:59;;;;;;;;;;;;;;;;;;5038132;28;19913;-85
2021/05/09 08:17:25;;;;;;;;;;;;;;;;;;5038256;28;19913;-84
2021/05/09 08:19:51;;;;;;;;;;;;;;;;;;5035999;28;20372;-85
2021/05/09 08:22:17;;;;;;;;;;;;;;;;;;5042052;28;19917;-86
2021/05/09 08:24:43;;;;;;;;;;;;;;;;;;5045973;28;19913;-85
2021/05/09 08:27:09;;;;;;;;;;;;;;;;;;5032240;28;19916;-84
2021/05/09 08:29:35;;;;;;;;;;;;;;;;;;5038935;28;19920;-85
2021/05/09 08:32:01;;;;;;;;;;;;;;;;;;5033264;28;19971;-85
2021/05/09 08:34:28;;;;;;;;;;;;;;;;;;5039950;28;20372;-85
2021/05/09 08:36:53;;;;;;;;;;;;;;;;;;5040173;28;19913;-85
2021/05/09 08:39:19;;;;;;;;;;;;;;;;;;5047462;28;19966;-85
2021/05/09 08:41:47;;;;;;;;;;;;;;;;;;5048892;28;19913;-85
2021/05/09 08:44:13;;;;;;;;;;;;;;;;;;5040362;28;19924;-84
2021/05/09 08:46:39;;;;;;;;;;;;;;;;;;5044531;28;20311;-85
2021/05/09 08:49:04;;;;;;;;;;;;;;;;;;5041990;28;19984;-87
2021/05/09 08:51:30;;;;;;;;;;;;;;;;;;5051594;28;20386;-85
2021/05/09 08:53:56;;;;;;;;;;;;;;;;;;5040618;28;19959;-85
2021/05/09 08:56:24;;;;;;;;;;;;;;;;;;5050960;28;19913;-85
2021/05/09 08:58:50;;;;;;;;;;;;;;;;;;5040819;28;19909;-87
2021/05/09 09:01:16;;;;;;;;;;;;;;;;;;5050442;28;20386;-85
2021/05/09 09:03:42;;;;;;;;;;;;;;;;;;5055253;28;19924;-85
2021/05/09 09:06:16;;;;;;;;;;;;;;;;;;5054853;28;19920;-85
2021/05/09 09:08:42;;;;;;;;;;;;;;;;;;5051133;28;19981;-86
2021/05/09 09:11:08;;;;;;;;;;;;;;;;;;5038091;28;20376;-86
2021/05/09 09:13:34;;;;;;;;;;;;;;;;;;5050644;28;20051;-84
2021/05/09 09:16:00;;;;;;;;;;;;;;;;;;5042718;28;20008;-85
2021/05/09 09:18:26;;;;;;;;;;;;;;;;;;5051366;28;19909;-85
2021/05/09 09:20:51;;;;;;;;;;;;;;;;;;5051355;28;20596;-85
2021/05/09 09:23:17;;;;;;;;;;;;;;;;;;5036381;28;20008;-85
2021/05/09 09:25:43;;;;;;;;;;;;;;;;;;5049490;28;19959;-87
2021/05/09 09:28:09;;;;;;;;;;;;;;;;;;5047677;28;19996;-85
2021/05/09 09:30:35;;;;;;;;;;;;;;;;;;5053901;28;19967;-86
2021/05/09 09:33:01;;;;;;;;;;;;;;;;;;5053840;28;19908;-86
2021/05/09 09:35:27;;;;;;;;;;;;;;;;;;5061252;28;19909;-84
2021/05/09 09:37:53;;;;;;;;;;;;;;;;;;5058182;28;20364;-84
2021/05/09 09:40:19;;;;;;;;;;;;;;;;;;5057605;28;20003;-84
2021/05/09 09:42:45;;;;;;;;;;;;;;;;;;5038210;28;19910;-84
2021/05/09 09:45:11;;;;;;;;;;;;;;;;;;5036921;28;20008;-84
2021/05/09 09:47:36;;;;;;;;;;;;;;;;;;5036574;28;20348;-84
2021/05/09 09:50:02;;;;;;;;;;;;;;;;;;5037267;28;19909;-84
2021/05/09 09:52:28;;;;;;;;;;;;;;;;;;5038825;28;19917;-84
2021/05/09 09:54:54;;;;;;;;;;;;;;;;;;5037820;28;19909;-85
2021/05/09 09:57:20;;;;;;;;;;;;;;;;;;5035695;28;19959;-85
2021/05/09 09:59:46;;;;;;;;;;;;;;;;;;5036435;28;20020;-85
2021/05/09 10:02:12;;;;;;;;;;;;;;;;;;5036090;28;19964;-84
2021/05/09 10:04:38;;;;;;;;;;;;;;;;;;5035705;28;20283;-84
2021/05/09 10:07:04;;;;;;;;;;;;;;;;;;5036731;28;19916;-84
2021/05/09 10:09:29;;;;;;;;;;;;;;;;;;5053823;28;19913;-85
2021/05/09 10:11:55;;;;;;;;;;;;;;;;;;5058003;28;19913;-85
2021/05/09 10:14:21;;;;;;;;;;;;;;;;;;5039125;28;20368;-83
2021/05/09 10:16:47;;;;;;;;;;;;;;;;;;5035565;28;19909;-85
2021/05/09 10:19:15;;;;;;;;;;;;;;;;;;5037725;28;19999;-85
2021/05/09 10:21:42;;;;;;;;;;;;;;;;;;5038732;28;19916;-84
2021/05/09 10:24:10;;;;;;;;;;;;;;;;;;5037385;28;19910;-84
2021/05/09 10:26:36;;;;;;;;;;;;;;;;;;5049016;28;20007;-84
2021/05/09 10:29:02;;;;;;;;;;;;;;;;;;5058031;28;20339;-85
2021/05/09 10:31:28;;;;;;;;;;;;;;;;;;5055349;28;19959;-83
2021/05/09 10:33:54;;;;;;;;;;;;;;;;;;5056165;28;20012;-84
2021/05/09 10:36:20;;;;;;;;;;;;;;;;;;5044609;28;20460;-84
2021/05/09 10:38:46;;;;;;;;;;;;;;;;;;5035362;28;20568;-85
2021/05/09 10:41:12;;;;;;;;;;;;;;;;;;5036535;28;19948;-83
2021/05/09 10:43:38;;;;;;;;;;;;;;;;;;5035979;28;19920;-85
2021/05/09 10:46:04;;;;;;;;;;;;;;;;;;5036826;28;19913;-84
2021/05/09 10:48:34;;;;;;;;;;;;;;;;;;5037418;28;20581;-84
2021/05/09 10:50:59;;;;;;;;;;;;;;;;;;5036546;28;19920;-84
2021/05/09 10:53:25;;;;;;;;;;;;;;;;;;5036910;28;19909;-84
2021/05/09 10:55:51;;;;;;;;;;;;;;;;;;5036894;28;19932;-84
2021/05/09 10:58:17;;;;;;;;;;;;;;;;;;5035806;28;19909;-85
2021/05/09 11:00:44;;;;;;;;;;;;;;;;;;5035781;28;19958;-85
2021/05/09 11:03:10;;;;;;;;;;;;;;;;;;5044056;28;19920;-85
2021/05/09 11:05:36;;;;;;;;;;;;;;;;;;5049879;28;19909;-86
2021/05/09 11:08:02;;;;;;;;;;;;;;;;;;5040714;28;19909;-84
2021/05/09 11:10:28;;;;;;;;;;;;;;;;;;5048837;28;19925;-86
2021/05/09 11:12:54;;;;;;;;;;;;;;;;;;5047400;28;19958;-86
2021/05/09 11:15:20;;;;;;;;;;;;;;;;;;5045898;28;19971;-85
2021/05/09 11:17:46;;;;;;;;;;;;;;;;;;5039802;28;20400;-85
2021/05/09 11:20:12;;;;;;;;;;;;;;;;;;5050581;28;19940;-86
2021/05/09 11:22:37;;;;;;;;;;;;;;;;;;5051551;28;20364;-85
2021/05/09 11:25:03;;;;;;;;;;;;;;;;;;5039876;28;19971;-85
2021/05/09 11:27:29;;;;;;;;;;;;;;;;;;5051315;28;19916;-85
2021/05/09 11:29:56;;;;;;;;;;;;;;;;;;5031042;28;20008;-84
2021/05/09 11:32:22;;;;;;;;;;;;;;;;;;5047041;28;19913;-84
2021/05/09 11:34:49;;;;;;;;;;;;;;;;;;5043246;28;19917;-84
2021/05/09 11:37:16;;;;;;;;;;;;;;;;;;5046877;28;19913;-85
2021/05/09 11:39:42;;;;;;;;;;;;;;;;;;5048816;28;19919;-84
2021/05/09 11:42:09;;;;;;;;;;;;;;;;;;5047434;28;19913;-86
2021/05/09 11:44:35;;;;;;;;;;;;;;;;;;5045529;28;19913;-84
2021/05/09 11:47:01;;;;;;;;;;;;;;;;;;5051015;28;19917;-86
2021/05/09 11:49:29;;;;;;;;;;;;;;;;;;5043884;28;19948;-85
2021/05/09 11:51:55;;;;;;;;;;;;;;;;;;5042110;28;19921;-85
2021/05/09 11:54:21;;;;;;;;;;;;;;;;;;5049106;28;19919;-85
2021/05/09 11:56:47;;;;;;;;;;;;;;;;;;5049777;28;19913;-85
2021/05/09 11:59:13;;;;;;;;;;;;;;;;;;5047162;28;19912;-85
2021/05/09 12:01:39;;;;;;;;;;;;;;;;;;5040207;28;19913;-85
2021/05/09 12:04:05;;;;;;;;;;;;;;;;;;5042629;28;20368;-85
2021/05/09 12:06:31;;;;;;;;;;;;;;;;;;5041048;28;19920;-85
2021/05/09 12:08:57;;;;;;;;;;;;;;;;;;5043542;28;19912;-85
2021/05/09 12:11:23;;;;;;;;;;;;;;;;;;5036489;28;19932;-86
2021/05/09 12:13:49;;;;;;;;;;;;;;;;;;5048857;28;20568;-85
2021/05/09 12:16:15;;;;;;;;;;;;;;;;;;5037757;28;19943;-85
2021/05/09 12:18:40;;;;;;;;;;;;;;;;;;5047929;28;19916;-85
2021/05/09 12:21:07;;;;;;;;;;;;;;;;;;5049684;28;19977;-85
2021/05/09 12:23:33;;;;;;;;;;;;;;;;;;5033868;28;19952;-85
2021/05/09 12:25:59;;;;;;;;;;;;;;;;;;5038238;28;19928;-85
2021/05/09 12:28:25;;;;;;;;;;;;;;;;;;5065316;28;19975;-85
2021/05/09 12:30:51;;;;;;;;;;;;;;;;;;5046753;28;20027;-85
2021/05/09 12:33:17;;;;;;;;;;;;;;;;;;5045991;28;19996;-85
2021/05/09 12:35:43;;;;;;;;;;;;;;;;;;5038607;28;19923;-84
2021/05/09 12:38:09;;;;;;;;;;;;;;;;;;5047435;28;20276;-85
2021/05/09 12:40:36;;;;;;;;;;;;;;;;;;5037779;28;19924;-86
2021/05/09 12:43:03;;;;;;;;;;;;;;;;;;5052084;28;20293;-85
2021/05/09 12:45:29;;;;;;;;;;;;;;;;;;5046833;28;20319;-85
2021/05/09 12:47:55;;;;;;;;;;;;;;;;;;5048586;28;19920;-86
2021/05/09 12:50:21;;;;;;;;;;;;;;;;;;5043765;28;19938;-85
2021/05/09 12:52:47;;;;;;;;;;;;;;;;;;5052916;28;19912;-85
2021/05/09 12:55:13;;;;;;;;;;;;;;;;;;5051457;28;20019;-85
2021/05/09 12:57:39;;;;;;;;;;;;;;;;;;5046571;28;20416;-86
2021/05/09 13:00:08;;;;;;;;;;;;;;;;;;5051655;28;19913;-85
2021/05/09 13:02:34;;;;;;;;;;;;;;;;;;5037662;28;20454;-85
2021/05/09 13:05:03;;;;;;;;;;;;;;;;;;5044143;28;19910;-85
2021/05/09 13:07:28;;;;;;;;;;;;;;;;;;5047974;28;19914;-86
2021/05/09 13:09:54;;;;;;;;;;;;;;;;;;5041350;28;19920;-85
2021/05/09 13:12:20;;;;;;;;;;;;;;;;;;5048049;28;19923;-84
2021/05/09 13:14:46;;;;;;;;;;;;;;;;;;5048018;28;20403;-86
2021/05/09 13:17:12;;;;;;;;;;;;;;;;;;5049257;28;20263;-85
2021/05/09 13:19:39;;;;;;;;;;;;;;;;;;5042158;28;19909;-84
2021/05/09 13:22:05;;;;;;;;;;;;;;;;;;5046685;28;19912;-85
2021/05/09 13:24:31;;;;;;;;;;;;;;;;;;5049590;28;20453;-85
2021/05/09 13:26:57;;;;;;;;;;;;;;;;;;5052231;28;19995;-84
2021/05/09 13:29:23;;;;;;;;;;;;;;;;;;5054753;28;19955;-84
2021/05/09 13:31:48;;;;;;;;;;;;;;;;;;5054154;28;19913;-84
2021/05/09 13:34:14;;;;;;;;;;;;;;;;;;5055889;28;19909;-83
2021/05/09 13:36:40;;;;;;;;;;;;;;;;;;5054432;28;19909;-84
2021/05/09 13:39:07;;;;;;;;;;;;;;;;;;5053266;28;19916;-83
2021/05/09 13:41:33;;;;;;;;;;;;;;;;;;5054141;28;20036;-83
2021/05/09 13:43:59;;;;;;;;;;;;;;;;;;5053585;28;19971;-83
2021/05/09 13:46:25;;;;;;;;;;;;;;;;;;5056976;28;19909;-84
2021/05/09 13:48:51;;;;;;;;;;;;;;;;;;5059995;28;19909;-84
2021/05/09 13:51:17;;;;;;;;;;;;;;;;;;5057161;28;20011;-86
2021/05/09 13:53:43;;;;;;;;;;;;;;;;;;5055830;28;19963;-85
2021/05/09 13:56:09;;;;;;;;;;;;;;;;;;5051011;28;19916;-87
2021/05/09 13:58:35;;;;;;;;;;;;;;;;;;5048089;28;19912;-85
2021/05/09 14:01:01;;;;;;;;;;;;;;;;;;5046966;28;19917;-85
2021/05/09 14:03:27;;;;;;;;;;;;;;;;;;5043158;28;19913;-86
2021/05/09 14:05:53;;;;;;;;;;;;;;;;;;5041745;28;19913;-86
2021/05/09 14:08:18;;;;;;;;;;;;;;;;;;5049298;28;19921;-86
2021/05/09 14:10:44;;;;;;;;;;;;;;;;;;5048320;28;19966;-85
2021/05/09 14:13:10;;;;;;;;;;;;;;;;;;5052477;28;20298;-84
2021/05/09 14:15:40;;;;;;;;;;;;;;;;;;5045849;28;19986;-82
2021/05/09 14:18:06;;;;;;;;;;;;;;;;;;5046279;28;19995;-84
2021/05/09 14:20:32;;;;;;;;;;;;;;;;;;5049589;28;20012;-84
2021/05/09 14:22:57;;;;;;;;;;;;;;;;;;5042196;28;20380;-84
2021/05/09 14:25:23;;;;;;;;;;;;;;;;;;5045443;28;19913;-84
2021/05/09 14:27:50;;;;;;;;;;;;;;;;;;5038803;28;20272;-83
2021/05/09 14:30:16;;;;;;;;;;;;;;;;;;5041465;28;19932;-83
2021/05/09 14:32:41;;;;;;;;;;;;;;;;;;5051094;28;19916;-84
2021/05/09 14:35:07;;;;;;;;;;;;;;;;;;5038436;28;20335;-84
2021/05/09 14:37:33;;;;;;;;;;;;;;;;;;5040239;28;19970;-84
2021/05/09 14:39:59;;;;;;;;;;;;;;;;;;5034382;28;19925;-84
2021/05/09 14:42:25;;;;;;;;;;;;;;;;;;5056348;28;19914;-83
2021/05/09 14:44:51;;;;;;;;;;;;;;;;;;5038017;28;19909;-85
2021/05/09 14:47:17;;;;;;;;;;;;;;;;;;5044459;28;19909;-85
2021/05/09 14:49:44;;;;;;;;;;;;;;;;;;5049179;28;19920;-84
2021/05/09 14:52:10;;;;;;;;;;;;;;;;;;5042260;28;19971;-84
2021/05/09 14:54:36;;;;;;;;;;;;;;;;;;5043528;28;19917;-84
2021/05/09 14:57:01;;;;;;;;;;;;;;;;;;5043741;28;20452;-84
2021/05/09 14:59:27;;;;;;;;;;;;;;;;;;5031938;28;20372;-84
2021/05/09 15:01:53;;;;;;;;;;;;;;;;;;5044301;28;19913;-84
2021/05/09 15:04:19;;;;;;;;;;;;;;;;;;5046001;28;20388;-84
2021/05/09 15:06:45;;;;;;;;;;;;;;;;;;5043170;28;20000;-83
2021/05/09 15:09:11;;;;;;;;;;;;;;;;;;5057438;28;19909;-84
2021/05/09 15:11:37;;;;;;;;;;;;;;;;;;5059424;28;19932;-84
2021/05/09 15:14:03;;;;;;;;;;;;;;;;;;5059558;28;20329;-85
2021/05/09 15:16:29;;;;;;;;;;;;;;;;;;5061153;28;19908;-84
2021/05/09 15:18:55;;;;;;;;;;;;;;;;;;5058148;28;19908;-84
2021/05/09 15:21:21;;;;;;;;;;;;;;;;;;5056681;28;19999;-84
2021/05/09 15:23:47;;;;;;;;;;;;;;;;;;5055394;28;20006;-83
2021/05/09 15:26:13;;;;;;;;;;;;;;;;;;5054839;28;19908;-84
2021/05/09 15:28:39;;;;;;;;;;;;;;;;;;5046397;28;19920;-85
2021/05/09 15:31:05;;;;;;;;;;;;;;;;;;5041842;28;19920;-84
2021/05/09 15:33:30;;;;;;;;;;;;;;;;;;5052485;28;19923;-85
2021/05/09 15:35:56;;;;;;;;;;;;;;;;;;5046058;28;19916;-84
2021/05/09 15:38:22;;;;;;;;;;;;;;;;;;5049479;28;19916;-85
2021/05/09 15:40:48;;;;;;;;;;;;;;;;;;5040522;28;20284;-85
2021/05/09 15:43:14;;;;;;;;;;;;;;;;;;5040292;28;19928;-85
2021/05/09 15:45:40;;;;;;;;;;;;;;;;;;5048551;28;19958;-85
2021/05/09 15:48:06;;;;;;;;;;;;;;;;;;5048723;28;19917;-85
2021/05/09 15:50:32;;;;;;;;;;;;;;;;;;5049407;28;19908;-85
2021/05/09 15:52:59;;;;;;;;;;;;;;;;;;5040858;28;19917;-86
2021/05/09 15:55:25;;;;;;;;;;;;;;;;;;5049559;28;19909;-86
2021/05/09 15:57:51;;;;;;;;;;;;;;;;;;5045390;28;19923;-86
2021/05/09 16:00:17;;;;;;;;;;;;;;;;;;5045045;28;19919;-85
2021/05/09 16:02:43;;;;;;;;;;;;;;;;;;5038658;28;20026;-85
2021/05/09 16:05:09;;;;;;;;;;;;;;;;;;5042979;28;19923;-86
2021/05/09 16:07:35;;;;;;;;;;;;;;;;;;5037662;28;20454;-85
2021/05/09 16:10:00;;;;;;;;;;;;;;;;;;5041567;28;20451;-85
2021/05/09 16:14:41;;;;;;;;;;;;;;;;;;5093499;27;19925;-86
2021/05/09 16:17:07;;;;;;;;;;;;;;;;;;5106980;28;19935;-85
2021/05/09 16:19:33;;;;;;;;;;;;;;;;;;5088895;28;19912;-84
2021/05/09 16:21:59;;;;;;;;;;;;;;;;;;5092882;28;19962;-85
2021/05/09 16:24:26;;;;;;;;;;;;;;;;;;5092451;28;19915;-84
2021/05/09 16:26:52;;;;;;;;;;;;;;;;;;5087408;28;20393;-84
2021/05/09 16:29:18;;;;;;;;;;;;;;;;;;5088877;28;19924;-84
2021/05/09 16:31:44;;;;;;;;;;;;;;;;;;5087655;28;19913;-85
2021/05/09 16:34:10;;;;;;;;;;;;;;;;;;5087552;28;19955;-84
2021/05/09 16:36:36;;;;;;;;;;;;;;;;;;5090251;28;19912;-84
2021/05/09 16:39:01;;;;;;;;;;;;;;;;;;5087750;28;19912;-84